Flight Track Log - Related Links

Times and Time Zones

All times are in EDT time to prevent confusion due to time zone crossing. See the SKW7426 flight status page for this flight to view local times or setup timezone preferences in your user account.


Time Position Orientation Groundspeed Altitude Reporting Facility
EDT Latitude Longitude Course Direction KTS MPH feet Rate Location/Type
Sat 08:13:45 AM 48.5292 -93.3886 221° Southwest 163 188 3,600  Level Minneapolis Center
Sat 08:14:46 AM 48.4614 -93.4075 190° South 241 277 6,300 2,852 Climbing Minneapolis Center
Sat 08:15:47 AM 48.3828 -93.4292 190° South 263 303 9,400 2,607 Climbing Minneapolis Center
Sat 08:16:00 AM 47.9997 -93.3728 195° South  Level Estimated
Sat 08:16:48 AM 48.2967 -93.4542 191° South 290 334 11,600  Level Minneapolis Center
Sat 08:17:00 AM 47.9054 -93.3680 191° South  Level Estimated
Sat 08:17:49 AM 48.2022 -93.4842 192° South 319 367 13,700  Level Minneapolis Center
Sat 08:18:00 AM 47.8337 -93.4594 221° Southwest  Level FlightAware Approximate
Sat 08:18:50 AM 48.1028 -93.5150 192° South 344 396 15,900  Level Minneapolis Center
Sat 08:19:51 AM 48.0014 -93.5464 192° South 366 421 17,800 1,918 Climbing Minneapolis Center
Sat 08:20:52 AM 47.8939 -93.5778 191° South 385 443 19,800 1,770 Climbing Minneapolis Center
Sat 08:21:53 AM 47.7847 -93.6106 191° South 397 457 21,400 1,475 Climbing Minneapolis Center
Sat 08:22:54 AM 47.6719 -93.6428 191° South 410 472 22,800 1,426 Climbing Minneapolis Center
Sat 08:23:55 AM 47.5331 -93.6842 191° South 424 488 24,300 1,377 Climbing Minneapolis Center
Sat 08:24:56 AM 47.4161 -93.7186 191° South 429 494 25,600 836 Climbing Minneapolis Center
Sat 08:25:57 AM 47.2972 -93.7528 191° South 433 498 26,000 197 Climbing Minneapolis Center
Sat 08:26:58 AM 47.1706 -93.7914 192° South 459 528 26,000  Level Minneapolis Center
Sat 08:27:59 AM 47.0400 -93.8303 191° South 474 545 26,000  Level Minneapolis Center
Sat 08:29:00 AM 46.9097 -93.8672 191° South 478 550 26,000  Level Minneapolis Center
Sat 08:30:01 AM 46.7842 -93.9017 191° South 469 540 26,000  Level Minneapolis Center
Sat 08:31:02 AM 46.6644 -93.9378 192° South 448 516 26,000  Level Minneapolis Center
Sat 08:32:04 AM 46.5239 -93.9769 191° South 435 501 26,000  Level Minneapolis Center
Sat 08:33:05 AM 46.3986 -93.9347 167° South 459 528 26,000  Level Minneapolis Center
Sat 08:34:06 AM 46.2753 -93.8825 164° South 464 534 26,000 -1,082 Level Minneapolis Center
Sat 08:35:07 AM 46.1586 -93.8347 164° South 464 534 23,800 -2,459 Descending Minneapolis Center
Sat 08:36:08 AM 46.0417 -93.7869 164° South 448 516 21,000 -2,754 Descending Minneapolis Center
Sat 08:37:09 AM 45.9228 -93.7392 164° South 447 514 18,200 -2,607 Descending Minneapolis Center
Sat 08:38:10 AM 45.8144 -93.6964 165° South 414 476 15,700 -2,508 Descending Minneapolis Center
Sat 08:39:11 AM 45.7069 -93.6525 164° South 404 465 13,100 -2,311 Descending Minneapolis Center
Sat 08:40:12 AM 45.5861 -93.6042 164° South 382 440 11,000 -1,033 Descending Minneapolis Center
Sat 08:41:13 AM 45.4856 -93.5572 162° South 381 438 11,000 -197 Level Minneapolis Center
Sat 08:42:14 AM 45.3931 -93.5061 159° South 350 403 10,600 -1,131 Descending Minneapolis Center
Sat 08:43:15 AM 45.3125 -93.4758 165° South 306 352 8,700 -1,721 Descending Minneapolis Center
Sat 08:44:16 AM 45.2375 -93.5072 196° South 286 329 7,100 -1,122 Descending Minneapolis Center
Sat 08:45:18 AM 45.1683 -93.5264 191° South 258 297 6,400 -927 Descending Minneapolis Center
Sat 08:46:19 AM 45.1078 -93.4792 151° Southeast 251 289 5,200 -885 Descending Minneapolis Center
Sat 08:47:20 AM 45.0550 -93.4372 151° Southeast 223 257 4,600 -787 Descending Minneapolis Center
Sat 08:48:21 AM 45.0136 -93.4042 151° Southeast 177 204 3,600 -639 Descending Minneapolis Center
Sat 08:49:22 AM 44.9736 -93.3728 151° Southeast 169 194 3,300 -393 Descending Minneapolis Center
Sat 08:50:23 AM 44.9356 -93.3183 135° Southeast 166 191 2,800 -689 Descending Minneapolis Center
Sat 08:51:24 AM 44.9172 -93.2744 121° Southeast 132 152 1,900 -787 Descending Minneapolis Center
Sat 08:52:25 AM 44.8994 -93.2356 123° Southeast 121 139 1,200 -689 Descending Minneapolis Center

Login

Don't have an account? Register now (free) for customized features, flight alerts, and more!